createdAt,value
2018-06-23T00:02:14.595Z,13.27
2018-06-23T00:04:43.201Z,13.16
2018-06-23T00:07:11.790Z,13.17
2018-06-23T00:09:40.514Z,13.12
2018-06-23T00:12:09.097Z,13.06
2018-06-23T00:14:37.581Z,13.12
2018-06-23T00:17:06.222Z,13.06
2018-06-23T00:19:34.749Z,12.98
2018-06-23T00:22:03.317Z,12.94
2018-06-23T00:24:31.885Z,12.94
2018-06-23T00:27:00.351Z,12.89
2018-06-23T00:29:29.282Z,12.86
2018-06-23T00:31:57.873Z,12.83
2018-06-23T00:34:26.890Z,12.87
2018-06-23T00:36:55.474Z,12.82
2018-06-23T00:39:24.037Z,12.78
2018-06-23T00:41:52.494Z,12.62
2018-06-23T00:44:21.080Z,12.61
2018-06-23T00:46:49.766Z,12.63
2018-06-23T00:49:18.313Z,12.58
2018-06-23T00:51:46.791Z,12.54
2018-06-23T00:54:15.348Z,12.43
2018-06-23T00:56:43.917Z,12.49
2018-06-23T00:59:23.636Z,12.42
2018-06-23T01:01:52.363Z,12.40
2018-06-23T01:04:20.921Z,12.41
2018-06-23T01:06:49.504Z,12.35
2018-06-23T01:09:17.998Z,12.22
2018-06-23T01:11:46.662Z,12.16
2018-06-23T01:14:15.190Z,12.10
2018-06-23T01:16:43.723Z,12.09
2018-06-23T01:19:12.466Z,12.05
2018-06-23T01:21:41.117Z,11.97
2018-06-23T01:24:09.731Z,11.92
2018-06-23T01:26:38.372Z,11.81
2018-06-23T01:29:07.100Z,11.75
2018-06-23T01:31:35.784Z,11.77
2018-06-23T01:34:04.372Z,11.74
2018-06-23T01:36:32.895Z,11.68
2018-06-23T01:39:01.484Z,11.68
2018-06-23T01:41:30.095Z,11.65
2018-06-23T01:43:58.854Z,11.60
2018-06-23T01:46:27.371Z,11.60
2018-06-23T01:48:55.985Z,11.56
2018-06-23T01:51:24.562Z,11.48
2018-06-23T01:53:53.200Z,11.47
2018-06-23T01:56:21.803Z,11.49
2018-06-23T01:58:50.374Z,11.43
2018-06-23T02:01:19.010Z,11.41
2018-06-23T02:03:47.763Z,11.35
2018-06-23T02:06:17.020Z,11.41
2018-06-23T02:08:46.158Z,11.34
2018-06-23T02:11:14.779Z,11.35
2018-06-23T02:13:43.620Z,11.29
2018-06-23T02:18:24.091Z,11.30
2018-06-23T02:20:57.872Z,11.23
2018-06-23T02:23:31.542Z,11.23
2018-06-23T02:26:05.401Z,11.24
2018-06-23T02:28:39.513Z,11.24
2018-06-23T02:31:13.405Z,11.25
2018-06-23T02:33:47.224Z,11.18
2018-06-23T02:36:15.820Z,11.16
2018-06-23T02:38:44.402Z,11.17
2018-06-23T02:41:13.167Z,11.14
2018-06-23T02:43:41.654Z,11.14
2018-06-23T02:46:10.163Z,11.16
2018-06-23T02:48:38.702Z,11.12
2018-06-23T02:51:07.930Z,11.07
2018-06-23T02:53:36.449Z,11.09
2018-06-23T02:56:05.098Z,11.12
2018-06-23T02:58:33.692Z,11.11
2018-06-23T03:01:02.256Z,11.06
2018-06-23T03:03:30.881Z,11.10
2018-06-23T03:05:59.407Z,11.05
2018-06-23T03:08:28.026Z,11.07
2018-06-23T03:10:56.603Z,11.09
2018-06-23T03:13:25.115Z,11.08
2018-06-23T03:15:53.693Z,11.02
2018-06-23T03:18:22.303Z,11.02
2018-06-23T03:20:50.820Z,11.01
2018-06-23T03:23:25.930Z,11.03
2018-06-23T03:25:54.447Z,11.08
2018-06-23T03:28:23.182Z,11.07
2018-06-23T03:30:51.763Z,11.11
2018-06-23T03:33:20.397Z,11.16
2018-06-23T03:35:48.931Z,11.11
2018-06-23T03:38:17.456Z,11.12
2018-06-23T03:40:45.992Z,11.12
2018-06-23T03:43:14.597Z,11.14
2018-06-23T03:45:44.087Z,11.22
2018-06-23T03:48:12.666Z,11.21
2018-06-23T03:50:41.179Z,11.19
2018-06-23T03:53:09.646Z,11.22
2018-06-23T03:55:38.176Z,11.21
2018-06-23T03:58:07.019Z,11.28
2018-06-23T04:00:35.515Z,11.28
2018-06-23T04:03:04.047Z,11.28
2018-06-23T04:05:32.777Z,11.30
2018-06-23T04:08:01.285Z,11.26
2018-06-23T04:10:29.846Z,11.22
2018-06-23T04:12:58.614Z,11.26
2018-06-23T04:15:27.149Z,11.25
2018-06-23T04:17:55.689Z,11.27
2018-06-23T04:20:24.504Z,11.21
2018-06-23T04:22:53.008Z,11.28
2018-06-23T04:25:23.157Z,11.18
2018-06-23T04:27:51.799Z,11.22
2018-06-23T04:30:20.271Z,11.19
2018-06-23T04:32:48.799Z,11.11
2018-06-23T04:35:17.373Z,11.03
2018-06-23T04:37:46.159Z,11.04
2018-06-23T04:40:14.628Z,10.92
2018-06-23T04:42:43.280Z,10.83
2018-06-23T04:45:12.006Z,10.85
2018-06-23T04:47:40.525Z,10.81
2018-06-23T04:50:09.366Z,10.80
2018-06-23T04:52:37.977Z,10.81
2018-06-23T04:55:06.518Z,10.88
2018-06-23T04:57:35.487Z,10.86
2018-06-23T05:00:04.127Z,10.82
2018-06-23T05:02:32.677Z,10.77
2018-06-23T05:05:01.234Z,10.78
2018-06-23T05:07:30.049Z,10.80
2018-06-23T05:09:58.549Z,10.75
2018-06-23T05:12:27.071Z,10.78
2018-06-23T05:14:55.698Z,10.80
2018-06-23T05:17:24.300Z,10.81
2018-06-23T05:19:52.870Z,10.86
2018-06-23T05:22:21.697Z,10.82
2018-06-23T05:24:50.425Z,10.82
2018-06-23T05:27:18.949Z,10.87
2018-06-23T05:29:47.450Z,10.95
2018-06-23T05:32:16.266Z,10.89
2018-06-23T05:34:44.803Z,10.93
2018-06-23T05:37:13.346Z,10.92
2018-06-23T05:39:41.915Z,10.89
2018-06-23T05:42:10.478Z,10.86
2018-06-23T05:44:39.034Z,10.94
2018-06-23T05:47:07.575Z,10.95
2018-06-23T05:49:36.111Z,11.01
2018-06-23T05:52:04.741Z,11.02
2018-06-23T05:54:33.300Z,11.03
2018-06-23T05:57:01.836Z,11.08
2018-06-23T05:59:30.777Z,11.09
2018-06-23T06:01:59.510Z,11.12
2018-06-23T06:04:28.069Z,11.19
2018-06-23T06:06:56.798Z,11.19
2018-06-23T06:09:25.553Z,11.23
2018-06-23T06:11:54.274Z,11.27
2018-06-23T06:14:22.929Z,11.29
2018-06-23T06:17:54.046Z,11.28
2018-06-23T06:20:22.742Z,11.35
2018-06-23T06:22:51.295Z,11.34
2018-06-23T06:25:20.818Z,11.44
2018-06-23T06:27:49.592Z,11.48
2018-06-23T06:30:18.133Z,11.45
2018-06-23T06:32:47.100Z,11.47
2018-06-23T06:35:15.735Z,11.49
2018-06-23T06:37:45.399Z,11.56
2018-06-23T06:40:13.959Z,11.59
2018-06-23T06:42:42.541Z,11.60
2018-06-23T06:45:11.040Z,11.63
2018-06-23T06:47:39.606Z,11.65
2018-06-23T06:50:08.197Z,11.68
2018-06-23T06:52:36.861Z,11.74
2018-06-23T06:55:05.643Z,11.77
2018-06-23T06:57:34.251Z,11.77
2018-06-23T07:00:02.763Z,11.79
2018-06-23T07:02:31.263Z,11.81
2018-06-23T07:05:00.022Z,11.86
2018-06-23T07:07:28.823Z,11.89
2018-06-23T07:09:57.423Z,11.96
2018-06-23T07:12:26.007Z,12.02
2018-06-23T07:14:54.774Z,12.04
2018-06-23T07:17:23.312Z,12.12
2018-06-23T07:19:52.566Z,12.16
2018-06-23T07:22:21.055Z,12.20
2018-06-23T07:24:49.671Z,12.29
2018-06-23T07:27:18.252Z,12.35
2018-06-23T07:29:46.980Z,12.31
2018-06-23T07:32:15.840Z,12.43
2018-06-23T07:34:44.957Z,12.47
2018-06-23T07:37:13.965Z,12.50
2018-06-23T07:39:45.841Z,12.52
2018-06-23T07:42:14.711Z,12.58
2018-06-23T07:44:43.335Z,12.62
2018-06-23T07:47:11.966Z,12.64
2018-06-23T07:49:40.494Z,12.64
2018-06-23T07:52:09.190Z,12.65
2018-06-23T07:54:37.858Z,12.61
2018-06-23T07:57:06.625Z,12.69
2018-06-23T07:59:35.161Z,12.68
2018-06-23T08:02:03.817Z,12.59
2018-06-23T08:04:32.951Z,12.56
2018-06-23T08:07:01.877Z,12.49
2018-06-23T08:09:30.808Z,12.50
2018-06-23T08:11:59.694Z,12.62
2018-06-23T08:14:28.541Z,12.64
2018-06-23T08:16:57.332Z,12.62
2018-06-23T08:19:26.243Z,12.63
2018-06-23T08:21:54.843Z,12.60
2018-06-23T08:24:23.674Z,12.62
2018-06-23T08:26:52.198Z,12.64
2018-06-23T08:29:20.865Z,12.68
2018-06-23T08:31:49.687Z,12.73
2018-06-23T08:34:18.305Z,12.70
2018-06-23T08:36:47.006Z,12.88
2018-06-23T08:39:16.109Z,13.14
2018-06-23T08:41:44.933Z,13.47
2018-06-23T08:44:15.429Z,13.71
2018-06-23T08:46:44.571Z,14.00
2018-06-23T08:49:13.285Z,14.17
2018-06-23T08:51:42.206Z,14.31
2018-06-23T08:54:10.752Z,14.39
2018-06-23T08:56:39.633Z,14.62
2018-06-23T08:59:08.197Z,14.50
2018-06-23T09:01:37.048Z,14.75
2018-06-23T09:04:06.503Z,15.09
2018-06-23T09:06:36.009Z,15.12
2018-06-23T09:09:06.999Z,15.26
2018-06-23T09:11:35.528Z,15.36
2018-06-23T09:14:04.543Z,15.34
2018-06-23T09:16:33.066Z,15.37
2018-06-23T09:19:01.666Z,15.56
2018-06-23T09:21:30.500Z,15.53
2018-06-23T09:23:59.022Z,15.41
2018-06-23T09:26:27.886Z,15.07
2018-06-23T09:28:56.405Z,15.06
2018-06-23T09:31:25.118Z,15.13
2018-06-23T09:33:54.649Z,15.50
2018-06-23T09:36:23.273Z,16.09
2018-06-23T09:38:52.090Z,16.48
2018-06-23T09:41:20.857Z,16.59
2018-06-23T09:43:49.621Z,16.60
2018-06-23T09:46:18.356Z,16.76
2018-06-23T09:48:46.866Z,16.69
2018-06-23T09:51:15.740Z,16.23
2018-06-23T09:53:44.350Z,15.94
2018-06-23T09:56:13.638Z,15.46
2018-06-23T09:58:42.884Z,15.21
2018-06-23T10:01:12.536Z,15.07
2018-06-23T10:03:42.018Z,15.13
2018-06-23T10:06:11.158Z,15.23
2018-06-23T10:08:40.024Z,15.13
2018-06-23T10:11:09.028Z,15.06
2018-06-23T10:13:37.570Z,15.14
2018-06-23T10:16:07.114Z,15.38
2018-06-23T10:18:35.641Z,15.56
2018-06-23T10:21:04.488Z,15.76
2018-06-23T10:23:34.414Z,15.80
2018-06-23T10:26:03.427Z,15.88
2018-06-23T10:28:32.724Z,15.71
2018-06-23T10:31:02.334Z,15.67
2018-06-23T10:33:30.930Z,15.36
2018-06-23T10:35:59.870Z,15.49
2018-06-23T10:38:28.609Z,15.46
2018-06-23T10:40:57.225Z,15.70
2018-06-23T10:43:25.910Z,16.07
2018-06-23T10:45:54.771Z,16.41
2018-06-23T10:48:23.325Z,16.75
2018-06-23T10:50:51.923Z,16.83
2018-06-23T10:53:21.115Z,16.45
2018-06-23T10:55:49.970Z,16.31
2018-06-23T10:58:19.085Z,16.12
2018-06-23T11:00:48.027Z,15.80
2018-06-23T11:03:16.881Z,15.64
2018-06-23T11:05:46.380Z,15.50
2018-06-23T11:08:15.677Z,15.49
2018-06-23T11:10:44.698Z,15.48
2018-06-23T11:13:13.512Z,15.40
2018-06-23T11:15:42.780Z,15.38
2018-06-23T11:18:11.343Z,15.58
2018-06-23T11:20:41.921Z,15.66
2018-06-23T11:23:11.920Z,15.62
2018-06-23T11:25:41.108Z,15.54
2018-06-23T11:28:10.746Z,15.46
2018-06-23T11:30:39.721Z,15.29
2018-06-23T11:33:09.450Z,15.33
2018-06-23T11:35:42.113Z,15.44
2018-06-23T11:38:27.098Z,15.62
2018-06-23T11:43:49.540Z,16.26
2018-06-23T11:46:19.908Z,16.51
2018-06-23T11:48:50.033Z,16.69
2018-06-23T11:51:18.661Z,16.81
2018-06-23T11:53:47.274Z,16.81
2018-06-23T11:56:16.234Z,16.86
2018-06-23T11:58:45.124Z,16.85
2018-06-23T12:01:14.317Z,17.00
2018-06-23T12:03:44.035Z,17.25
2018-06-23T12:06:13.117Z,17.20
2018-06-23T12:08:41.978Z,16.94
2018-06-23T12:11:10.544Z,16.79
2018-06-23T12:13:39.658Z,16.58
2018-06-23T12:16:08.757Z,16.52
2018-06-23T12:18:39.515Z,16.70
2018-06-23T12:21:08.520Z,16.71
2018-06-23T12:23:37.491Z,16.71
2018-06-23T12:26:06.410Z,16.50
2018-06-23T12:28:35.235Z,16.44
2018-06-23T12:31:03.786Z,16.49
2018-06-23T12:33:32.462Z,16.26
2018-06-23T12:36:01.686Z,16.29
2018-06-23T12:38:30.838Z,16.35
2018-06-23T12:40:59.760Z,16.33
2018-06-23T12:43:28.560Z,16.31
2018-06-23T12:45:57.074Z,16.09
2018-06-23T12:48:25.732Z,16.29
2018-06-23T12:50:55.033Z,16.45
2018-06-23T12:53:23.643Z,16.70
2018-06-23T12:55:52.365Z,16.70
2018-06-23T12:58:21.179Z,16.83
2018-06-23T13:00:49.696Z,16.85
2018-06-23T13:03:18.371Z,16.85
2018-06-23T13:05:47.278Z,16.77
2018-06-23T13:08:16.232Z,16.57
2018-06-23T13:10:44.837Z,16.25
2018-06-23T13:13:13.725Z,16.18
2018-06-23T13:15:42.339Z,15.82
2018-06-23T13:18:11.919Z,15.69
2018-06-23T13:20:41.316Z,15.74
2018-06-23T13:23:10.420Z,15.67
2018-06-23T13:25:39.089Z,15.66
2018-06-23T13:28:09.504Z,15.64
2018-06-23T13:30:38.101Z,15.63
2018-06-23T13:33:06.946Z,15.58
2018-06-23T13:35:37.675Z,15.64
2018-06-23T13:38:06.364Z,15.56
2018-06-23T13:40:35.193Z,15.66
2018-06-23T13:43:03.906Z,15.65
2018-06-23T13:45:32.722Z,15.53
2018-06-23T13:48:01.284Z,15.44
2018-06-23T13:50:32.028Z,15.40
2018-06-23T13:53:01.325Z,15.39
2018-06-23T13:55:30.078Z,15.21
2018-06-23T13:57:58.628Z,15.30
2018-06-23T14:00:27.482Z,15.34
2018-06-23T14:02:56.146Z,15.28
2018-06-23T14:05:24.980Z,15.13
2018-06-23T14:07:53.781Z,15.10
2018-06-23T14:10:22.528Z,15.07
2018-06-23T14:12:51.420Z,14.95
2018-06-23T14:15:21.103Z,14.78
2018-06-23T14:17:49.804Z,14.83
2018-06-23T14:20:22.866Z,14.95
2018-06-23T14:22:51.465Z,15.01
2018-06-23T14:25:20.377Z,15.08
2018-06-23T14:27:48.957Z,15.19
2018-06-23T14:30:17.641Z,15.18
2018-06-23T14:32:46.454Z,15.19
2018-06-23T14:35:16.882Z,15.17
2018-06-23T14:37:47.735Z,15.17
2018-06-23T14:40:16.818Z,15.18
2018-06-23T14:42:46.983Z,15.08
2018-06-23T14:45:15.875Z,14.99
2018-06-23T14:47:45.090Z,15.02
2018-06-23T14:50:13.866Z,15.05
2018-06-23T14:52:42.590Z,15.07
2018-06-23T14:55:11.302Z,15.03
2018-06-23T14:57:39.928Z,14.91
2018-06-23T15:00:08.534Z,14.98
2018-06-23T15:02:37.235Z,14.99
2018-06-23T15:05:06.123Z,15.02
2018-06-23T15:07:34.824Z,15.06
2018-06-23T15:10:14.445Z,15.05
2018-06-23T15:12:54.109Z,15.03
2018-06-23T15:15:22.771Z,15.03
2018-06-23T15:17:51.625Z,15.08
2018-06-23T15:20:20.377Z,15.04
2018-06-23T15:22:49.004Z,15.00
2018-06-23T15:25:17.917Z,15.03
2018-06-23T15:27:46.686Z,15.04
2018-06-23T15:30:15.210Z,15.02
2018-06-23T15:32:43.895Z,14.99
2018-06-23T15:35:12.738Z,15.09
2018-06-23T15:37:41.268Z,15.13
2018-06-23T15:40:09.852Z,15.12
2018-06-23T15:42:38.482Z,15.10
2018-06-23T15:45:07.482Z,15.15
2018-06-23T15:47:36.237Z,15.18
2018-06-23T15:50:04.854Z,15.17
2018-06-23T15:52:33.409Z,15.19
2018-06-23T15:55:02.108Z,15.18
2018-06-23T15:57:30.789Z,15.28
2018-06-23T15:59:59.384Z,15.14
2018-06-23T16:02:28.050Z,15.18
2018-06-23T16:04:56.522Z,15.18
2018-06-23T16:07:25.155Z,15.20
2018-06-23T16:09:53.758Z,15.13
2018-06-23T16:12:22.322Z,15.08
2018-06-23T16:14:51.124Z,15.18
2018-06-23T16:17:19.742Z,15.17
2018-06-23T16:19:48.290Z,15.24
2018-06-23T16:22:16.909Z,15.19
2018-06-23T16:24:45.610Z,15.11
2018-06-23T16:27:14.522Z,15.10
2018-06-23T16:29:43.147Z,15.18
2018-06-23T16:32:11.727Z,15.15
2018-06-23T16:34:40.491Z,15.12
2018-06-23T16:37:09.054Z,15.16
2018-06-23T16:39:37.722Z,15.10
2018-06-23T16:42:06.805Z,15.15
2018-06-23T16:44:35.519Z,15.15
2018-06-23T16:47:04.123Z,15.12
2018-06-23T16:49:33.618Z,15.10
2018-06-23T16:52:02.477Z,15.12
2018-06-23T16:54:31.205Z,15.10
2018-06-23T16:56:59.903Z,15.12
2018-06-23T16:59:28.657Z,15.17
2018-06-23T17:01:57.297Z,15.10
2018-06-23T17:04:25.871Z,14.95
2018-06-23T17:06:54.715Z,14.97
2018-06-23T17:09:23.491Z,14.92
2018-06-23T17:11:52.038Z,14.92
2018-06-23T17:14:20.652Z,14.91
2018-06-23T17:16:49.356Z,14.90
2018-06-23T17:19:18.224Z,14.88
2018-06-23T17:21:47.148Z,14.89
2018-06-23T17:24:15.674Z,14.86
2018-06-23T17:26:44.648Z,14.86
2018-06-23T17:29:13.133Z,14.83
2018-06-23T17:31:42.269Z,14.81
2018-06-23T17:34:10.841Z,14.76
2018-06-23T17:36:40.285Z,14.76
2018-06-23T17:39:10.177Z,14.77
2018-06-23T17:41:39.267Z,14.76
2018-06-23T17:44:11.764Z,14.74
2018-06-23T17:46:43.459Z,14.75
2018-06-23T17:49:16.297Z,14.72
2018-06-23T17:51:49.588Z,14.71
2018-06-23T17:54:23.471Z,14.62
2018-06-23T17:56:57.132Z,14.62
2018-06-23T17:59:29.895Z,14.64
2018-06-23T18:01:58.491Z,14.64
2018-06-23T18:04:35.304Z,14.67
2018-06-23T18:07:04.390Z,14.62
2018-06-23T18:09:32.951Z,14.63
2018-06-23T18:12:02.060Z,14.56
2018-06-23T18:14:31.442Z,14.57
2018-06-23T18:17:00.079Z,14.52
2018-06-23T18:19:30.229Z,14.54
2018-06-23T18:21:58.859Z,14.53
2018-06-23T18:24:32.693Z,14.47
2018-06-23T18:27:02.518Z,14.43
2018-06-23T18:29:32.011Z,14.39
2018-06-23T18:32:01.183Z,14.44
2018-06-23T18:34:32.406Z,14.41
2018-06-23T18:37:05.215Z,14.43
2018-06-23T18:39:36.434Z,14.44
2018-06-23T18:42:05.604Z,14.42
2018-06-23T18:44:34.154Z,14.40
2018-06-23T18:47:02.913Z,14.41
2018-06-23T18:49:31.624Z,14.43
2018-06-23T18:52:00.644Z,14.44
2018-06-23T18:54:29.522Z,14.44
2018-06-23T18:56:58.038Z,14.43
2018-06-23T18:59:26.557Z,14.45
2018-06-23T19:01:55.685Z,14.45
2018-06-23T19:04:24.148Z,14.45
2018-06-23T19:06:52.818Z,14.51
2018-06-23T19:09:21.427Z,14.45
2018-06-23T19:11:49.978Z,14.44
2018-06-23T19:14:18.551Z,14.42
2018-06-23T19:16:47.196Z,14.39
2018-06-23T19:19:16.011Z,14.40
2018-06-23T19:21:44.706Z,14.39
2018-06-23T19:24:13.306Z,14.36
2018-06-23T19:26:41.936Z,14.37
2018-06-23T19:29:10.955Z,14.37
2018-06-23T19:31:39.970Z,14.30
2018-06-23T19:34:08.594Z,14.32
2018-06-23T19:36:37.727Z,14.30
2018-06-23T19:39:08.600Z,14.25
2018-06-23T19:41:37.438Z,14.20
2018-06-23T19:44:06.247Z,14.18
2018-06-23T19:46:34.974Z,14.19
2018-06-23T19:49:03.754Z,14.15
2018-06-23T19:51:32.440Z,14.12
2018-06-23T19:54:00.953Z,14.12
2018-06-23T19:56:29.917Z,14.09
2018-06-23T19:58:58.506Z,14.04
2018-06-23T20:01:27.195Z,14.01
2018-06-23T20:03:56.447Z,14.00
2018-06-23T20:06:25.295Z,13.99
2018-06-23T20:08:54.254Z,13.88
2018-06-23T20:11:23.096Z,13.83
2018-06-23T20:13:51.939Z,13.78
2018-06-23T20:16:20.467Z,13.67
2018-06-23T20:18:49.378Z,13.67
2018-06-23T20:21:18.249Z,13.59
2018-06-23T20:23:47.040Z,13.58
2018-06-23T20:26:15.903Z,13.56
2018-06-23T20:28:44.650Z,13.50
2018-06-23T20:31:13.495Z,13.52
2018-06-23T20:33:42.018Z,13.44
2018-06-23T20:36:10.926Z,13.43
2018-06-23T20:38:39.920Z,13.35
2018-06-23T20:41:08.972Z,13.28
2018-06-23T20:43:37.918Z,13.25
2018-06-23T20:46:06.450Z,13.29
2018-06-23T20:48:35.500Z,13.16
2018-06-23T20:51:04.377Z,13.09
2018-06-23T20:53:32.904Z,13.14
2018-06-23T20:56:02.368Z,13.14
2018-06-23T20:58:30.917Z,13.16
2018-06-23T21:00:59.701Z,13.10
2018-06-23T21:03:28.227Z,13.13
2018-06-23T21:05:57.257Z,13.08
2018-06-23T21:08:26.005Z,13.02
2018-06-23T21:10:54.559Z,12.99
2018-06-23T21:13:23.078Z,13.07
2018-06-23T21:15:51.559Z,13.12
2018-06-23T21:18:20.057Z,13.13
2018-06-23T21:20:49.151Z,13.10
2018-06-23T21:23:18.236Z,13.07
2018-06-23T21:25:47.192Z,13.10
2018-06-23T21:28:16.557Z,13.15
2018-06-23T21:30:45.293Z,13.14
2018-06-23T21:33:13.821Z,13.18
2018-06-23T21:35:42.553Z,13.23
2018-06-23T21:38:11.173Z,13.20
2018-06-23T21:40:39.706Z,13.21
2018-06-23T21:43:08.502Z,13.22
2018-06-23T21:45:37.176Z,13.22
2018-06-23T21:48:05.901Z,13.27
2018-06-23T21:50:34.519Z,13.29
2018-06-23T21:53:03.308Z,13.32
2018-06-23T21:55:31.820Z,13.32
2018-06-23T21:58:00.407Z,13.32
2018-06-23T22:00:34.395Z,13.32
2018-06-23T22:03:07.135Z,13.36
2018-06-23T22:05:36.194Z,13.39
2018-06-23T22:08:05.486Z,13.36
2018-06-23T22:10:34.127Z,13.42
2018-06-23T22:13:02.767Z,13.39
2018-06-23T22:15:31.673Z,13.40
2018-06-23T22:18:00.499Z,13.38
2018-06-23T22:20:29.160Z,13.41
2018-06-23T22:22:57.737Z,13.36
2018-06-23T22:25:26.699Z,13.40
2018-06-23T22:27:56.180Z,13.43
2018-06-23T22:30:25.111Z,13.41
2018-06-23T22:32:53.738Z,13.44
2018-06-23T22:35:22.474Z,13.43
2018-06-23T22:37:51.074Z,13.41
2018-06-23T22:40:20.518Z,13.40
2018-06-23T22:42:49.143Z,13.42
2018-06-23T22:45:17.922Z,13.44
2018-06-23T22:47:47.007Z,13.44
2018-06-23T22:50:15.890Z,13.45
2018-06-23T22:52:44.686Z,13.42
2018-06-23T22:55:13.180Z,13.43
2018-06-23T22:57:41.738Z,13.44
2018-06-23T23:00:12.515Z,13.41
2018-06-23T23:02:41.212Z,13.43
2018-06-23T23:05:10.519Z,13.40
2018-06-23T23:07:39.515Z,13.41
2018-06-23T23:10:10.634Z,13.43
2018-06-23T23:12:39.513Z,13.43
2018-06-23T23:15:08.071Z,13.41
2018-06-23T23:17:36.655Z,13.42
2018-06-23T23:20:06.922Z,13.40
2018-06-23T23:22:35.673Z,13.42
2018-06-23T23:25:04.886Z,13.40
2018-06-23T23:27:33.627Z,13.41
2018-06-23T23:30:02.359Z,13.42
2018-06-23T23:32:31.061Z,13.42
2018-06-23T23:34:59.550Z,13.39
2018-06-23T23:37:28.584Z,13.43
2018-06-23T23:39:57.097Z,13.43
2018-06-23T23:42:25.688Z,13.41
2018-06-23T23:44:55.827Z,13.41
2018-06-23T23:47:24.392Z,13.38
2018-06-23T23:49:52.926Z,13.36
2018-06-23T23:52:21.454Z,13.40
2018-06-23T23:54:50.025Z,13.37
2018-06-23T23:57:18.924Z,13.36
2018-06-23T23:59:47.744Z,13.36
